sensor_id;sensor_type;location;lat;lon;timestamp;P1;durP1;ratioP1;P2;durP2;ratioP2
36415;SDS011;22447;44.530;18.620;2022-07-23T00:01:39;8.80;;;5.95;;
36415;SDS011;22447;44.530;18.620;2022-07-23T00:04:06;11.15;;;5.00;;
36415;SDS011;22447;44.530;18.620;2022-07-23T00:06:32;11.43;;;5.38;;
36415;SDS011;22447;44.530;18.620;2022-07-23T00:08:58;8.98;;;5.25;;
36415;SDS011;22447;44.530;18.620;2022-07-23T00:11:24;9.20;;;4.95;;
36415;SDS011;22447;44.530;18.620;2022-07-23T00:13:50;9.65;;;5.40;;
36415;SDS011;22447;44.530;18.620;2022-07-23T00:16:15;8.90;;;5.43;;
36415;SDS011;22447;44.530;18.620;2022-07-23T00:18:41;7.45;;;4.90;;
36415;SDS011;22447;44.530;18.620;2022-07-23T00:21:07;8.48;;;5.03;;
36415;SDS011;22447;44.530;18.620;2022-07-23T00:23:33;11.07;;;5.50;;
36415;SDS011;22447;44.530;18.620;2022-07-23T00:25:59;11.38;;;5.43;;
36415;SDS011;22447;44.530;18.620;2022-07-23T00:28:25;7.72;;;5.03;;
36415;SDS011;22447;44.530;18.620;2022-07-23T00:30:51;6.82;;;5.00;;
36415;SDS011;22447;44.530;18.620;2022-07-23T00:33:17;6.75;;;4.90;;
36415;SDS011;22447;44.530;18.620;2022-07-23T00:35:43;10.20;;;5.50;;
36415;SDS011;22447;44.530;18.620;2022-07-23T00:38:10;9.40;;;5.10;;
36415;SDS011;22447;44.530;18.620;2022-07-23T00:40:36;12.68;;;4.75;;
36415;SDS011;22447;44.530;18.620;2022-07-23T00:43:03;9.85;;;5.78;;
36415;SDS011;22447;44.530;18.620;2022-07-23T00:45:30;8.57;;;5.63;;
36415;SDS011;22447;44.530;18.620;2022-07-23T00:47:56;8.60;;;5.18;;
36415;SDS011;22447;44.530;18.620;2022-07-23T00:50:22;7.75;;;5.10;;
36415;SDS011;22447;44.530;18.620;2022-07-23T00:52:48;9.43;;;5.25;;
36415;SDS011;22447;44.530;18.620;2022-07-23T00:55:15;9.57;;;5.32;;
36415;SDS011;22447;44.530;18.620;2022-07-23T00:57:41;9.75;;;5.40;;
36415;SDS011;22447;44.530;18.620;2022-07-23T01:00:09;8.00;;;5.30;;
36415;SDS011;22447;44.530;18.620;2022-07-23T01:02:38;10.80;;;5.57;;
36415;SDS011;22447;44.530;18.620;2022-07-23T01:05:04;7.57;;;5.15;;
36415;SDS011;22447;44.530;18.620;2022-07-23T01:07:31;12.27;;;5.45;;
36415;SDS011;22447;44.530;18.620;2022-07-23T01:09:57;8.77;;;4.93;;
36415;SDS011;22447;44.530;18.620;2022-07-23T01:12:24;11.25;;;5.32;;
36415;SDS011;22447;44.530;18.620;2022-07-23T01:14:57;8.45;;;5.15;;
36415;SDS011;22447;44.530;18.620;2022-07-23T01:17:25;8.82;;;4.72;;
36415;SDS011;22447;44.530;18.620;2022-07-23T01:19:52;10.77;;;5.05;;
36415;SDS011;22447;44.530;18.620;2022-07-23T01:22:18;9.75;;;4.70;;
36415;SDS011;22447;44.530;18.620;2022-07-23T01:24:45;10.50;;;4.75;;
36415;SDS011;22447;44.530;18.620;2022-07-23T01:27:11;10.02;;;4.93;;
36415;SDS011;22447;44.530;18.620;2022-07-23T01:29:39;8.57;;;4.88;;
36415;SDS011;22447;44.530;18.620;2022-07-23T01:32:16;11.65;;;4.63;;
36415;SDS011;22447;44.530;18.620;2022-07-23T01:34:42;8.52;;;4.43;;
36415;SDS011;22447;44.530;18.620;2022-07-23T01:37:08;7.50;;;4.75;;
36415;SDS011;22447;44.530;18.620;2022-07-23T01:39:34;9.15;;;4.85;;
36415;SDS011;22447;44.530;18.620;2022-07-23T01:42:00;7.88;;;5.28;;
36415;SDS011;22447;44.530;18.620;2022-07-23T01:44:26;15.18;;;4.78;;
36415;SDS011;22447;44.530;18.620;2022-07-23T01:46:52;7.57;;;4.93;;
36415;SDS011;22447;44.530;18.620;2022-07-23T01:49:20;9.13;;;5.15;;
36415;SDS011;22447;44.530;18.620;2022-07-23T01:52:05;10.13;;;4.90;;
36415;SDS011;22447;44.530;18.620;2022-07-23T01:54:47;12.98;;;5.38;;
36415;SDS011;22447;44.530;18.620;2022-07-23T01:57:13;12.45;;;5.13;;
36415;SDS011;22447;44.530;18.620;2022-07-23T01:59:39;14.52;;;6.22;;
36415;SDS011;22447;44.530;18.620;2022-07-23T02:02:07;9.73;;;5.25;;
36415;SDS011;22447;44.530;18.620;2022-07-23T02:04:33;9.25;;;5.82;;
36415;SDS011;22447;44.530;18.620;2022-07-23T02:07:02;12.63;;;5.80;;
36415;SDS011;22447;44.530;18.620;2022-07-23T02:09:29;7.45;;;5.45;;
36415;SDS011;22447;44.530;18.620;2022-07-23T02:11:55;9.18;;;5.13;;
36415;SDS011;22447;44.530;18.620;2022-07-23T02:14:21;10.77;;;5.72;;
36415;SDS011;22447;44.530;18.620;2022-07-23T02:16:47;11.00;;;4.95;;
36415;SDS011;22447;44.530;18.620;2022-07-23T02:19:13;10.80;;;5.00;;
36415;SDS011;22447;44.530;18.620;2022-07-23T02:21:40;11.80;;;5.35;;
36415;SDS011;22447;44.530;18.620;2022-07-23T02:24:05;16.55;;;5.88;;
36415;SDS011;22447;44.530;18.620;2022-07-23T02:26:32;8.55;;;5.28;;
36415;SDS011;22447;44.530;18.620;2022-07-23T02:29:02;11.63;;;5.32;;
36415;SDS011;22447;44.530;18.620;2022-07-23T02:31:29;7.40;;;4.57;;
36415;SDS011;22447;44.530;18.620;2022-07-23T02:33:56;7.18;;;4.80;;
36415;SDS011;22447;44.530;18.620;2022-07-23T02:36:22;9.20;;;4.90;;
36415;SDS011;22447;44.530;18.620;2022-07-23T02:38:49;8.35;;;5.28;;
36415;SDS011;22447;44.530;18.620;2022-07-23T02:41:15;8.73;;;4.78;;
36415;SDS011;22447;44.530;18.620;2022-07-23T02:43:41;13.40;;;5.18;;
36415;SDS011;22447;44.530;18.620;2022-07-23T02:46:07;9.48;;;5.18;;
36415;SDS011;22447;44.530;18.620;2022-07-23T02:48:34;8.57;;;5.15;;
36415;SDS011;22447;44.530;18.620;2022-07-23T02:51:00;11.45;;;5.07;;
36415;SDS011;22447;44.530;18.620;2022-07-23T02:53:35;10.75;;;5.20;;
36415;SDS011;22447;44.530;18.620;2022-07-23T02:56:01;10.57;;;4.80;;
36415;SDS011;22447;44.530;18.620;2022-07-23T02:58:27;12.55;;;6.30;;
36415;SDS011;22447;44.530;18.620;2022-07-23T03:00:53;13.10;;;5.68;;
36415;SDS011;22447;44.530;18.620;2022-07-23T03:03:19;14.85;;;6.55;;
36415;SDS011;22447;44.530;18.620;2022-07-23T03:05:45;11.60;;;5.47;;
36415;SDS011;22447;44.530;18.620;2022-07-23T03:08:11;11.00;;;6.25;;
36415;SDS011;22447;44.530;18.620;2022-07-23T03:10:40;10.38;;;6.88;;
36415;SDS011;22447;44.530;18.620;2022-07-23T03:13:07;11.13;;;5.70;;
36415;SDS011;22447;44.530;18.620;2022-07-23T03:15:32;11.75;;;5.53;;
36415;SDS011;22447;44.530;18.620;2022-07-23T03:17:59;11.95;;;5.45;;
36415;SDS011;22447;44.530;18.620;2022-07-23T03:20:25;11.70;;;5.65;;
36415;SDS011;22447;44.530;18.620;2022-07-23T03:22:52;7.50;;;5.50;;
36415;SDS011;22447;44.530;18.620;2022-07-23T03:25:18;7.72;;;5.28;;
36415;SDS011;22447;44.530;18.620;2022-07-23T03:27:44;12.50;;;5.63;;
36415;SDS011;22447;44.530;18.620;2022-07-23T03:30:10;10.55;;;5.88;;
36415;SDS011;22447;44.530;18.620;2022-07-23T03:32:37;10.07;;;5.50;;
36415;SDS011;22447;44.530;18.620;2022-07-23T03:35:03;10.88;;;6.18;;
36415;SDS011;22447;44.530;18.620;2022-07-23T03:37:30;11.57;;;5.45;;
36415;SDS011;22447;44.530;18.620;2022-07-23T03:39:58;9.50;;;5.82;;
36415;SDS011;22447;44.530;18.620;2022-07-23T03:42:24;13.07;;;6.43;;
36415;SDS011;22447;44.530;18.620;2022-07-23T03:44:49;15.10;;;6.47;;
36415;SDS011;22447;44.530;18.620;2022-07-23T03:47:15;13.15;;;6.30;;
36415;SDS011;22447;44.530;18.620;2022-07-23T03:49:43;10.88;;;4.85;;
36415;SDS011;22447;44.530;18.620;2022-07-23T03:52:09;12.10;;;6.07;;
36415;SDS011;22447;44.530;18.620;2022-07-23T03:54:35;10.20;;;6.32;;
36415;SDS011;22447;44.530;18.620;2022-07-23T03:57:01;12.13;;;6.85;;
36415;SDS011;22447;44.530;18.620;2022-07-23T03:59:27;15.50;;;6.82;;
36415;SDS011;22447;44.530;18.620;2022-07-23T04:01:53;14.20;;;6.93;;
36415;SDS011;22447;44.530;18.620;2022-07-23T04:04:19;14.18;;;6.75;;
36415;SDS011;22447;44.530;18.620;2022-07-23T04:06:45;18.25;;;6.93;;
36415;SDS011;22447;44.530;18.620;2022-07-23T04:09:11;14.90;;;6.80;;
36415;SDS011;22447;44.530;18.620;2022-07-23T04:11:37;10.10;;;5.63;;
36415;SDS011;22447;44.530;18.620;2022-07-23T04:14:03;18.42;;;5.97;;
36415;SDS011;22447;44.530;18.620;2022-07-23T04:16:29;12.25;;;6.20;;
36415;SDS011;22447;44.530;18.620;2022-07-23T04:18:57;12.65;;;6.05;;
36415;SDS011;22447;44.530;18.620;2022-07-23T04:21:24;14.23;;;6.40;;
36415;SDS011;22447;44.530;18.620;2022-07-23T04:23:50;10.90;;;5.82;;
36415;SDS011;22447;44.530;18.620;2022-07-23T04:26:16;15.07;;;5.82;;
36415;SDS011;22447;44.530;18.620;2022-07-23T04:28:41;19.92;;;7.40;;
36415;SDS011;22447;44.530;18.620;2022-07-23T04:31:09;14.60;;;6.22;;
36415;SDS011;22447;44.530;18.620;2022-07-23T04:33:37;10.55;;;5.00;;
36415;SDS011;22447;44.530;18.620;2022-07-23T04:36:05;13.80;;;5.80;;
36415;SDS011;22447;44.530;18.620;2022-07-23T04:38:31;10.10;;;5.18;;
36415;SDS011;22447;44.530;18.620;2022-07-23T04:41:00;11.20;;;5.72;;
36415;SDS011;22447;44.530;18.620;2022-07-23T04:43:26;11.63;;;5.80;;
36415;SDS011;22447;44.530;18.620;2022-07-23T04:45:53;16.60;;;7.38;;
36415;SDS011;22447;44.530;18.620;2022-07-23T04:48:19;17.00;;;7.25;;
36415;SDS011;22447;44.530;18.620;2022-07-23T04:50:47;18.55;;;6.80;;
36415;SDS011;22447;44.530;18.620;2022-07-23T04:53:16;12.65;;;6.65;;
36415;SDS011;22447;44.530;18.620;2022-07-23T04:55:43;21.50;;;8.40;;
36415;SDS011;22447;44.530;18.620;2022-07-23T04:58:09;17.27;;;7.32;;
36415;SDS011;22447;44.530;18.620;2022-07-23T05:00:35;16.70;;;7.10;;
36415;SDS011;22447;44.530;18.620;2022-07-23T05:03:02;15.07;;;7.20;;
36415;SDS011;22447;44.530;18.620;2022-07-23T05:05:28;14.45;;;7.22;;
36415;SDS011;22447;44.530;18.620;2022-07-23T05:07:59;15.73;;;6.95;;
36415;SDS011;22447;44.530;18.620;2022-07-23T05:10:27;19.98;;;7.45;;
36415;SDS011;22447;44.530;18.620;2022-07-23T05:12:53;21.35;;;7.68;;
36415;SDS011;22447;44.530;18.620;2022-07-23T05:15:19;17.20;;;7.40;;
36415;SDS011;22447;44.530;18.620;2022-07-23T05:17:45;34.45;;;8.50;;
36415;SDS011;22447;44.530;18.620;2022-07-23T05:20:15;18.33;;;7.03;;
36415;SDS011;22447;44.530;18.620;2022-07-23T05:22:41;20.00;;;7.40;;
36415;SDS011;22447;44.530;18.620;2022-07-23T05:25:07;15.82;;;6.68;;
36415;SDS011;22447;44.530;18.620;2022-07-23T05:27:33;23.67;;;8.32;;
36415;SDS011;22447;44.530;18.620;2022-07-23T05:29:59;17.38;;;7.25;;
36415;SDS011;22447;44.530;18.620;2022-07-23T05:32:25;12.57;;;6.82;;
36415;SDS011;22447;44.530;18.620;2022-07-23T05:35:02;18.27;;;7.70;;
36415;SDS011;22447;44.530;18.620;2022-07-23T05:37:29;25.52;;;7.10;;
36415;SDS011;22447;44.530;18.620;2022-07-23T05:39:55;32.50;;;9.20;;
36415;SDS011;22447;44.530;18.620;2022-07-23T05:42:24;17.98;;;7.53;;
36415;SDS011;22447;44.530;18.620;2022-07-23T05:44:50;18.23;;;8.05;;
36415;SDS011;22447;44.530;18.620;2022-07-23T05:47:16;28.55;;;8.25;;
36415;SDS011;22447;44.530;18.620;2022-07-23T05:49:43;17.02;;;6.97;;
36415;SDS011;22447;44.530;18.620;2022-07-23T05:52:35;21.95;;;6.88;;
36415;SDS011;22447;44.530;18.620;2022-07-23T05:55:20;15.25;;;6.97;;
36415;SDS011;22447;44.530;18.620;2022-07-23T05:57:46;19.83;;;7.85;;
36415;SDS011;22447;44.530;18.620;2022-07-23T06:00:12;26.15;;;7.40;;
36415;SDS011;22447;44.530;18.620;2022-07-23T06:05:10;31.95;;;8.00;;
36415;SDS011;22447;44.530;18.620;2022-07-23T06:07:37;22.88;;;7.78;;
36415;SDS011;22447;44.530;18.620;2022-07-23T06:10:03;22.33;;;7.55;;
36415;SDS011;22447;44.530;18.620;2022-07-23T06:12:30;31.95;;;7.78;;
36415;SDS011;22447;44.530;18.620;2022-07-23T06:14:56;28.75;;;7.05;;
36415;SDS011;22447;44.530;18.620;2022-07-23T06:17:22;29.83;;;7.80;;
36415;SDS011;22447;44.530;18.620;2022-07-23T06:19:48;23.48;;;8.57;;
36415;SDS011;22447;44.530;18.620;2022-07-23T06:22:14;31.35;;;7.85;;
36415;SDS011;22447;44.530;18.620;2022-07-23T06:24:41;21.17;;;6.68;;
36415;SDS011;22447;44.530;18.620;2022-07-23T06:27:06;20.05;;;7.13;;
36415;SDS011;22447;44.530;18.620;2022-07-23T06:29:34;28.15;;;7.97;;
36415;SDS011;22447;44.530;18.620;2022-07-23T06:32:00;24.70;;;7.82;;
36415;SDS011;22447;44.530;18.620;2022-07-23T06:34:27;18.30;;;6.25;;
36415;SDS011;22447;44.530;18.620;2022-07-23T06:36:54;22.98;;;7.30;;
36415;SDS011;22447;44.530;18.620;2022-07-23T06:39:20;20.25;;;6.05;;
36415;SDS011;22447;44.530;18.620;2022-07-23T06:41:47;20.48;;;6.25;;
36415;SDS011;22447;44.530;18.620;2022-07-23T06:44:16;21.00;;;6.70;;
36415;SDS011;22447;44.530;18.620;2022-07-23T06:46:42;24.88;;;7.32;;
36415;SDS011;22447;44.530;18.620;2022-07-23T06:49:09;21.90;;;7.68;;
36415;SDS011;22447;44.530;18.620;2022-07-23T06:51:35;20.30;;;6.57;;
36415;SDS011;22447;44.530;18.620;2022-07-23T06:54:01;22.33;;;6.60;;
36415;SDS011;22447;44.530;18.620;2022-07-23T06:56:28;17.65;;;5.60;;
36415;SDS011;22447;44.530;18.620;2022-07-23T06:58:54;16.67;;;5.32;;
36415;SDS011;22447;44.530;18.620;2022-07-23T07:01:20;17.55;;;5.18;;
36415;SDS011;22447;44.530;18.620;2022-07-23T07:03:46;20.73;;;7.05;;
36415;SDS011;22447;44.530;18.620;2022-07-23T07:06:13;14.90;;;5.65;;
36415;SDS011;22447;44.530;18.620;2022-07-23T07:08:39;19.15;;;6.50;;
36415;SDS011;22447;44.530;18.620;2022-07-23T07:11:05;23.50;;;6.38;;
36415;SDS011;22447;44.530;18.620;2022-07-23T07:13:31;20.35;;;6.65;;
36415;SDS011;22447;44.530;18.620;2022-07-23T07:15:57;24.98;;;7.00;;
36415;SDS011;22447;44.530;18.620;2022-07-23T07:18:22;19.33;;;6.47;;
36415;SDS011;22447;44.530;18.620;2022-07-23T07:20:48;32.47;;;7.47;;
36415;SDS011;22447;44.530;18.620;2022-07-23T07:23:14;17.92;;;6.53;;
36415;SDS011;22447;44.530;18.620;2022-07-23T07:25:40;11.18;;;5.18;;
36415;SDS011;22447;44.530;18.620;2022-07-23T07:28:06;13.38;;;5.63;;
36415;SDS011;22447;44.530;18.620;2022-07-23T07:30:32;13.77;;;5.47;;
36415;SDS011;22447;44.530;18.620;2022-07-23T07:32:58;14.68;;;6.07;;
36415;SDS011;22447;44.530;18.620;2022-07-23T07:35:24;13.90;;;6.00;;
36415;SDS011;22447;44.530;18.620;2022-07-23T07:37:50;25.75;;;6.63;;
36415;SDS011;22447;44.530;18.620;2022-07-23T07:40:16;22.80;;;7.18;;
36415;SDS011;22447;44.530;18.620;2022-07-23T07:42:46;17.05;;;7.15;;
36415;SDS011;22447;44.530;18.620;2022-07-23T07:45:16;12.27;;;5.30;;
36415;SDS011;22447;44.530;18.620;2022-07-23T07:47:42;11.65;;;5.22;;
36415;SDS011;22447;44.530;18.620;2022-07-23T07:50:08;20.40;;;5.65;;
36415;SDS011;22447;44.530;18.620;2022-07-23T07:52:35;13.38;;;4.75;;
36415;SDS011;22447;44.530;18.620;2022-07-23T07:55:02;16.65;;;7.07;;
36415;SDS011;22447;44.530;18.620;2022-07-23T07:57:32;17.55;;;6.65;;
36415;SDS011;22447;44.530;18.620;2022-07-23T07:59:58;13.73;;;5.03;;
36415;SDS011;22447;44.530;18.620;2022-07-23T08:02:24;10.98;;;4.68;;
36415;SDS011;22447;44.530;18.620;2022-07-23T08:04:50;17.17;;;5.30;;
36415;SDS011;22447;44.530;18.620;2022-07-23T08:07:16;15.38;;;4.97;;
36415;SDS011;22447;44.530;18.620;2022-07-23T08:09:42;15.75;;;5.50;;
36415;SDS011;22447;44.530;18.620;2022-07-23T08:12:08;24.20;;;6.55;;
36415;SDS011;22447;44.530;18.620;2022-07-23T08:14:34;13.55;;;5.55;;
36415;SDS011;22447;44.530;18.620;2022-07-23T08:17:00;16.85;;;5.82;;
36415;SDS011;22447;44.530;18.620;2022-07-23T08:19:26;18.15;;;6.95;;
36415;SDS011;22447;44.530;18.620;2022-07-23T08:21:52;18.73;;;7.07;;
36415;SDS011;22447;44.530;18.620;2022-07-23T08:24:18;9.85;;;5.30;;
36415;SDS011;22447;44.530;18.620;2022-07-23T08:26:44;15.38;;;5.30;;
36415;SDS011;22447;44.530;18.620;2022-07-23T08:29:09;37.78;;;7.90;;
36415;SDS011;22447;44.530;18.620;2022-07-23T08:31:35;27.50;;;7.13;;
36415;SDS011;22447;44.530;18.620;2022-07-23T08:34:01;15.77;;;5.90;;
36415;SDS011;22447;44.530;18.620;2022-07-23T08:36:28;11.73;;;6.07;;
36415;SDS011;22447;44.530;18.620;2022-07-23T08:38:57;23.42;;;7.07;;
36415;SDS011;22447;44.530;18.620;2022-07-23T08:41:24;21.83;;;7.50;;
36415;SDS011;22447;44.530;18.620;2022-07-23T08:43:50;19.75;;;6.05;;
36415;SDS011;22447;44.530;18.620;2022-07-23T08:46:18;16.90;;;5.40;;
36415;SDS011;22447;44.530;18.620;2022-07-23T08:48:45;17.05;;;5.75;;
36415;SDS011;22447;44.530;18.620;2022-07-23T08:51:13;23.13;;;7.00;;
36415;SDS011;22447;44.530;18.620;2022-07-23T08:53:39;12.70;;;5.45;;
36415;SDS011;22447;44.530;18.620;2022-07-23T08:56:07;16.58;;;5.70;;
36415;SDS011;22447;44.530;18.620;2022-07-23T08:58:33;16.40;;;6.20;;
36415;SDS011;22447;44.530;18.620;2022-07-23T09:01:00;16.83;;;5.45;;
36415;SDS011;22447;44.530;18.620;2022-07-23T09:03:28;12.73;;;4.68;;
36415;SDS011;22447;44.530;18.620;2022-07-23T09:05:56;9.02;;;4.53;;
36415;SDS011;22447;44.530;18.620;2022-07-23T09:08:25;22.40;;;6.45;;
36415;SDS011;22447;44.530;18.620;2022-07-23T09:11:00;19.55;;;5.70;;
36415;SDS011;22447;44.530;18.620;2022-07-23T09:13:28;24.45;;;5.75;;
36415;SDS011;22447;44.530;18.620;2022-07-23T09:15:57;12.85;;;5.43;;
36415;SDS011;22447;44.530;18.620;2022-07-23T09:18:29;26.63;;;5.45;;
36415;SDS011;22447;44.530;18.620;2022-07-23T09:21:11;10.60;;;4.97;;
36415;SDS011;22447;44.530;18.620;2022-07-23T09:23:40;18.95;;;5.90;;
36415;SDS011;22447;44.530;18.620;2022-07-23T09:31:23;11.95;;;5.22;;
36415;SDS011;22447;44.530;18.620;2022-07-23T09:33:50;15.50;;;5.25;;
36415;SDS011;22447;44.530;18.620;2022-07-23T09:36:26;15.23;;;5.15;;
36415;SDS011;22447;44.530;18.620;2022-07-23T09:38:53;16.30;;;6.05;;
36415;SDS011;22447;44.530;18.620;2022-07-23T09:41:19;12.25;;;4.75;;
36415;SDS011;22447;44.530;18.620;2022-07-23T09:43:45;19.38;;;5.13;;
36415;SDS011;22447;44.530;18.620;2022-07-23T09:48:45;10.07;;;4.38;;
36415;SDS011;22447;44.530;18.620;2022-07-23T09:51:11;10.82;;;4.63;;
36415;SDS011;22447;44.530;18.620;2022-07-23T09:53:40;15.13;;;5.30;;
36415;SDS011;22447;44.530;18.620;2022-07-23T09:56:06;25.95;;;6.28;;
36415;SDS011;22447;44.530;18.620;2022-07-23T09:58:33;11.23;;;4.22;;
36415;SDS011;22447;44.530;18.620;2022-07-23T10:01:09;12.13;;;4.10;;
36415;SDS011;22447;44.530;18.620;2022-07-23T10:03:35;9.07;;;3.92;;
36415;SDS011;22447;44.530;18.620;2022-07-23T10:06:30;13.82;;;4.43;;
36415;SDS011;22447;44.530;18.620;2022-07-23T10:09:15;13.95;;;3.97;;
36415;SDS011;22447;44.530;18.620;2022-07-23T10:12:03;17.75;;;5.50;;
36415;SDS011;22447;44.530;18.620;2022-07-23T10:14:53;7.13;;;3.70;;
36415;SDS011;22447;44.530;18.620;2022-07-23T10:17:19;17.35;;;5.82;;
36415;SDS011;22447;44.530;18.620;2022-07-23T10:19:45;15.88;;;4.40;;
36415;SDS011;22447;44.530;18.620;2022-07-23T10:22:30;9.02;;;4.55;;
36415;SDS011;22447;44.530;18.620;2022-07-23T10:30:43;12.45;;;4.57;;
36415;SDS011;22447;44.530;18.620;2022-07-23T10:38:48;25.52;;;8.07;;
36415;SDS011;22447;44.530;18.620;2022-07-23T10:41:38;38.75;;;9.20;;
36415;SDS011;22447;44.530;18.620;2022-07-23T10:44:14;20.63;;;7.05;;
36415;SDS011;22447;44.530;18.620;2022-07-23T10:49:48;20.25;;;7.90;;
36415;SDS011;22447;44.530;18.620;2022-07-23T10:54:52;19.58;;;6.80;;
36415;SDS011;22447;44.530;18.620;2022-07-23T10:57:48;17.00;;;5.25;;
36415;SDS011;22447;44.530;18.620;2022-07-23T11:00:16;13.52;;;6.13;;
36415;SDS011;22447;44.530;18.620;2022-07-23T11:02:47;11.23;;;5.43;;
36415;SDS011;22447;44.530;18.620;2022-07-23T11:05:18;10.77;;;4.78;;
36415;SDS011;22447;44.530;18.620;2022-07-23T11:10:36;14.15;;;6.60;;
36415;SDS011;22447;44.530;18.620;2022-07-23T11:31:56;13.80;;;6.40;;
36415;SDS011;22447;44.530;18.620;2022-07-23T11:34:38;8.60;;;4.18;;
36415;SDS011;22447;44.530;18.620;2022-07-23T11:37:10;12.70;;;4.82;;
36415;SDS011;22447;44.530;18.620;2022-07-23T11:39:38;11.32;;;4.57;;
36415;SDS011;22447;44.530;18.620;2022-07-23T11:42:05;18.27;;;6.07;;
36415;SDS011;22447;44.530;18.620;2022-07-23T11:44:33;10.20;;;5.05;;
36415;SDS011;22447;44.530;18.620;2022-07-23T11:47:03;7.47;;;4.03;;
36415;SDS011;22447;44.530;18.620;2022-07-23T11:49:30;11.10;;;5.07;;
36415;SDS011;22447;44.530;18.620;2022-07-23T11:52:10;6.75;;;4.35;;
36415;SDS011;22447;44.530;18.620;2022-07-23T11:54:48;10.40;;;4.55;;
36415;SDS011;22447;44.530;18.620;2022-07-23T11:57:19;9.05;;;4.63;;
36415;SDS011;22447;44.530;18.620;2022-07-23T11:59:51;8.52;;;4.82;;
36415;SDS011;22447;44.530;18.620;2022-07-23T12:02:20;18.77;;;5.80;;
36415;SDS011;22447;44.530;18.620;2022-07-23T12:04:48;12.65;;;4.45;;
36415;SDS011;22447;44.530;18.620;2022-07-23T12:07:34;11.95;;;4.93;;
36415;SDS011;22447;44.530;18.620;2022-07-23T12:10:11;15.05;;;4.57;;
36415;SDS011;22447;44.530;18.620;2022-07-23T12:12:50;13.15;;;5.15;;
36415;SDS011;22447;44.530;18.620;2022-07-23T12:15:25;34.38;;;7.65;;
36415;SDS011;22447;44.530;18.620;2022-07-23T12:18:04;11.30;;;4.88;;
36415;SDS011;22447;44.530;18.620;2022-07-23T12:20:34;10.30;;;4.85;;
36415;SDS011;22447;44.530;18.620;2022-07-23T12:23:05;8.02;;;5.07;;
36415;SDS011;22447;44.530;18.620;2022-07-23T12:25:33;9.23;;;4.75;;
36415;SDS011;22447;44.530;18.620;2022-07-23T12:33:15;22.00;;;6.15;;
36415;SDS011;22447;44.530;18.620;2022-07-23T12:35:47;12.65;;;4.90;;
36415;SDS011;22447;44.530;18.620;2022-07-23T12:38:18;9.20;;;5.63;;
36415;SDS011;22447;44.530;18.620;2022-07-23T12:40:49;12.00;;;5.43;;
36415;SDS011;22447;44.530;18.620;2022-07-23T12:43:23;13.88;;;5.47;;
36415;SDS011;22447;44.530;18.620;2022-07-23T12:46:02;9.75;;;4.93;;
36415;SDS011;22447;44.530;18.620;2022-07-23T12:48:32;11.70;;;4.45;;
36415;SDS011;22447;44.530;18.620;2022-07-23T12:51:03;10.10;;;5.18;;
36415;SDS011;22447;44.530;18.620;2022-07-23T12:53:44;9.02;;;5.57;;
36415;SDS011;22447;44.530;18.620;2022-07-23T12:56:16;21.02;;;7.28;;
36415;SDS011;22447;44.530;18.620;2022-07-23T12:58:54;14.35;;;4.97;;
36415;SDS011;22447;44.530;18.620;2022-07-23T13:03:55;8.80;;;4.63;;
36415;SDS011;22447;44.530;18.620;2022-07-23T13:06:26;6.25;;;4.63;;
36415;SDS011;22447;44.530;18.620;2022-07-23T13:08:57;10.25;;;4.85;;
36415;SDS011;22447;44.530;18.620;2022-07-23T13:11:23;10.93;;;4.22;;
36415;SDS011;22447;44.530;18.620;2022-07-23T13:13:49;11.40;;;5.28;;
36415;SDS011;22447;44.530;18.620;2022-07-23T13:16:15;6.60;;;4.20;;
36415;SDS011;22447;44.530;18.620;2022-07-23T13:18:42;11.95;;;5.88;;
36415;SDS011;22447;44.530;18.620;2022-07-23T13:21:08;18.45;;;7.88;;
36415;SDS011;22447;44.530;18.620;2022-07-23T13:23:34;12.45;;;5.82;;
36415;SDS011;22447;44.530;18.620;2022-07-23T13:26:00;13.30;;;5.53;;
36415;SDS011;22447;44.530;18.620;2022-07-23T13:28:26;11.02;;;5.38;;
36415;SDS011;22447;44.530;18.620;2022-07-23T13:30:52;7.75;;;5.47;;
36415;SDS011;22447;44.530;18.620;2022-07-23T13:33:19;8.00;;;5.00;;
36415;SDS011;22447;44.530;18.620;2022-07-23T13:35:47;13.95;;;6.10;;
36415;SDS011;22447;44.530;18.620;2022-07-23T13:38:13;16.42;;;7.10;;
36415;SDS011;22447;44.530;18.620;2022-07-23T13:40:40;9.70;;;5.82;;
36415;SDS011;22447;44.530;18.620;2022-07-23T13:43:12;22.98;;;6.07;;
36415;SDS011;22447;44.530;18.620;2022-07-23T13:45:40;7.63;;;5.07;;
36415;SDS011;22447;44.530;18.620;2022-07-23T13:48:08;8.75;;;5.00;;
36415;SDS011;22447;44.530;18.620;2022-07-23T13:50:34;7.55;;;4.80;;
36415;SDS011;22447;44.530;18.620;2022-07-23T13:53:04;8.80;;;5.75;;
36415;SDS011;22447;44.530;18.620;2022-07-23T13:55:32;8.77;;;4.85;;
36415;SDS011;22447;44.530;18.620;2022-07-23T13:57:58;7.97;;;5.03;;
36415;SDS011;22447;44.530;18.620;2022-07-23T14:00:25;10.27;;;5.68;;
36415;SDS011;22447;44.530;18.620;2022-07-23T14:02:52;12.13;;;6.25;;
36415;SDS011;22447;44.530;18.620;2022-07-23T14:05:19;9.60;;;5.30;;
36415;SDS011;22447;44.530;18.620;2022-07-23T14:07:45;10.15;;;5.63;;
36415;SDS011;22447;44.530;18.620;2022-07-23T14:10:14;10.25;;;5.28;;
36415;SDS011;22447;44.530;18.620;2022-07-23T14:12:43;7.90;;;5.50;;
36415;SDS011;22447;44.530;18.620;2022-07-23T14:15:09;9.60;;;5.15;;
36415;SDS011;22447;44.530;18.620;2022-07-23T14:17:36;15.93;;;6.28;;
36415;SDS011;22447;44.530;18.620;2022-07-23T14:20:03;8.85;;;5.90;;
36415;SDS011;22447;44.530;18.620;2022-07-23T14:22:30;10.25;;;5.90;;
36415;SDS011;22447;44.530;18.620;2022-07-23T14:24:56;11.70;;;5.63;;
36415;SDS011;22447;44.530;18.620;2022-07-23T14:27:24;9.05;;;5.20;;
36415;SDS011;22447;44.530;18.620;2022-07-23T14:29:51;16.30;;;6.65;;
36415;SDS011;22447;44.530;18.620;2022-07-23T14:32:18;9.25;;;4.82;;
36415;SDS011;22447;44.530;18.620;2022-07-23T14:34:45;13.82;;;5.88;;
36415;SDS011;22447;44.530;18.620;2022-07-23T14:37:11;9.43;;;6.43;;
36415;SDS011;22447;44.530;18.620;2022-07-23T14:39:37;7.03;;;5.20;;
36415;SDS011;22447;44.530;18.620;2022-07-23T14:42:05;6.50;;;4.88;;
36415;SDS011;22447;44.530;18.620;2022-07-23T14:44:31;8.18;;;5.57;;
36415;SDS011;22447;44.530;18.620;2022-07-23T14:46:57;7.63;;;5.22;;
36415;SDS011;22447;44.530;18.620;2022-07-23T14:49:23;9.98;;;5.70;;
36415;SDS011;22447;44.530;18.620;2022-07-23T14:51:49;7.47;;;5.38;;
36415;SDS011;22447;44.530;18.620;2022-07-23T14:54:15;7.65;;;5.22;;
36415;SDS011;22447;44.530;18.620;2022-07-23T14:56:41;11.40;;;5.55;;
36415;SDS011;22447;44.530;18.620;2022-07-23T14:59:07;12.82;;;6.32;;
36415;SDS011;22447;44.530;18.620;2022-07-23T15:01:34;13.55;;;5.13;;
36415;SDS011;22447;44.530;18.620;2022-07-23T15:04:00;6.25;;;4.97;;
36415;SDS011;22447;44.530;18.620;2022-07-23T15:06:26;9.32;;;5.38;;
36415;SDS011;22447;44.530;18.620;2022-07-23T15:08:52;18.17;;;6.93;;
36415;SDS011;22447;44.530;18.620;2022-07-23T15:11:18;8.98;;;5.93;;
36415;SDS011;22447;44.530;18.620;2022-07-23T15:13:43;9.00;;;5.15;;
36415;SDS011;22447;44.530;18.620;2022-07-23T15:16:09;8.13;;;5.35;;
36415;SDS011;22447;44.530;18.620;2022-07-23T15:18:35;8.68;;;5.78;;
36415;SDS011;22447;44.530;18.620;2022-07-23T15:21:01;7.53;;;5.00;;
36415;SDS011;22447;44.530;18.620;2022-07-23T15:23:28;7.35;;;4.57;;
36415;SDS011;22447;44.530;18.620;2022-07-23T15:25:54;12.13;;;5.25;;
36415;SDS011;22447;44.530;18.620;2022-07-23T15:28:21;17.48;;;6.90;;